createdAt,value
2023-03-02T00:01:10.361Z,15.52
2023-03-02T00:03:38.664Z,16.70
2023-03-02T00:06:06.497Z,15.05
2023-03-02T00:08:34.989Z,15.52
2023-03-02T00:11:03.236Z,12.70
2023-03-02T00:13:31.552Z,12.98
2023-03-02T00:15:59.187Z,16.80
2023-03-02T00:18:26.920Z,13.43
2023-03-02T00:20:54.473Z,15.65
2023-03-02T00:23:22.140Z,16.73
2023-03-02T00:25:49.699Z,15.65
2023-03-02T00:28:17.267Z,20.35
2023-03-02T00:30:44.829Z,12.02
2023-03-02T00:33:12.431Z,12.80
2023-03-02T00:35:43.359Z,14.27
2023-03-02T00:38:11.047Z,13.15
2023-03-02T00:40:38.638Z,10.95
2023-03-02T00:43:06.302Z,12.05
2023-03-02T00:45:33.988Z,20.20
2023-03-02T00:48:01.635Z,13.38
2023-03-02T00:50:29.266Z,15.25
2023-03-02T00:52:56.965Z,14.10
2023-03-02T00:55:24.545Z,12.88
2023-03-02T00:57:55.714Z,14.15
2023-03-02T01:00:28.747Z,12.73
2023-03-02T01:02:59.992Z,13.68
2023-03-02T01:05:28.073Z,12.55
2023-03-02T01:07:55.649Z,10.20
2023-03-02T01:10:23.236Z,10.98
2023-03-02T01:12:50.802Z,11.05
2023-03-02T01:15:18.461Z,12.20
2023-03-02T01:17:46.799Z,14.02
2023-03-02T01:20:14.981Z,14.65
2023-03-02T01:22:44.634Z,15.23
2023-03-02T01:25:13.443Z,11.55
2023-03-02T01:27:43.297Z,11.63
2023-03-02T01:30:11.226Z,12.55
2023-03-02T01:32:38.932Z,11.73
2023-03-02T01:35:06.923Z,11.70
2023-03-02T01:37:34.629Z,15.18
2023-03-02T01:40:05.812Z,12.45
2023-03-02T01:42:41.770Z,14.52
2023-03-02T01:45:28.475Z,15.80
2023-03-02T01:47:56.171Z,15.07
2023-03-02T01:50:25.621Z,13.77
2023-03-02T01:52:58.145Z,15.10
2023-03-02T01:55:27.061Z,16.70
2023-03-02T01:57:55.917Z,21.98
2023-03-02T02:00:32.676Z,19.35
2023-03-02T02:03:12.770Z,16.58
2023-03-02T02:05:41.691Z,18.38
2023-03-02T02:08:09.898Z,20.42
2023-03-02T02:10:37.474Z,18.25
2023-03-02T02:13:04.977Z,17.10
2023-03-02T02:15:32.479Z,20.42
2023-03-02T02:17:59.916Z,16.10
2023-03-02T02:20:27.325Z,15.00
2023-03-02T02:22:58.007Z,19.60
2023-03-02T02:25:25.647Z,17.23
2023-03-02T02:27:53.242Z,20.30
2023-03-02T02:30:21.792Z,14.90
2023-03-02T02:32:50.180Z,16.02
2023-03-02T02:35:20.188Z,18.05
2023-03-02T02:37:51.123Z,15.80
2023-03-02T02:40:21.409Z,19.80
2023-03-02T02:42:52.046Z,16.38
2023-03-02T02:45:20.803Z,17.08
2023-03-02T02:47:48.776Z,17.80
2023-03-02T02:50:21.532Z,16.48
2023-03-02T02:52:51.967Z,18.20
2023-03-02T02:55:22.133Z,19.73
2023-03-02T02:57:52.648Z,18.48
2023-03-02T03:00:20.774Z,16.63
2023-03-02T03:02:50.597Z,18.48
2023-03-02T03:05:18.340Z,17.58
2023-03-02T03:07:46.330Z,21.83
2023-03-02T03:10:23.193Z,18.45
2023-03-02T03:12:52.002Z,17.70
2023-03-02T03:15:21.365Z,24.00
2023-03-02T03:17:55.071Z,17.23
2023-03-02T03:20:23.273Z,20.75
2023-03-02T03:22:53.471Z,18.00
2023-03-02T03:25:22.733Z,18.70
2023-03-02T03:27:50.772Z,19.73
2023-03-02T03:30:19.986Z,22.92
2023-03-02T03:32:47.951Z,23.77
2023-03-02T03:35:16.505Z,25.98
2023-03-02T03:37:45.693Z,27.95
2023-03-02T03:40:15.506Z,34.55
2023-03-02T03:42:44.978Z,30.33
2023-03-02T03:45:13.546Z,29.70
2023-03-02T03:47:43.385Z,32.88
2023-03-02T03:50:11.255Z,39.13
2023-03-02T03:52:39.641Z,37.28
2023-03-02T03:55:12.540Z,46.00
2023-03-02T03:57:41.212Z,44.75
2023-03-02T04:00:10.624Z,45.45
2023-03-02T04:02:41.870Z,41.45
2023-03-02T04:05:10.483Z,40.75
2023-03-02T04:07:38.620Z,40.45
2023-03-02T04:10:07.022Z,38.15
2023-03-02T04:12:40.668Z,41.75
2023-03-02T04:15:09.812Z,38.10
2023-03-02T04:17:37.342Z,36.65
2023-03-02T04:20:09.556Z,39.95
2023-03-02T04:22:38.366Z,35.58
2023-03-02T04:25:06.102Z,33.72
2023-03-02T04:27:33.550Z,39.35
2023-03-02T04:30:01.055Z,41.15
2023-03-02T04:32:30.853Z,38.10
2023-03-02T04:34:58.433Z,38.67
2023-03-02T04:37:27.574Z,37.30
2023-03-02T04:39:55.154Z,37.20
2023-03-02T04:42:22.647Z,38.55
2023-03-02T04:44:50.368Z,37.83
2023-03-02T04:47:17.854Z,37.15
2023-03-02T04:49:45.365Z,37.35
2023-03-02T04:52:12.831Z,42.38
2023-03-02T04:54:40.383Z,39.05
2023-03-02T04:57:08.613Z,39.53
2023-03-02T04:59:36.049Z,38.50
2023-03-02T05:02:03.741Z,40.15
2023-03-02T05:04:31.590Z,44.75
2023-03-02T05:06:59.194Z,40.75
2023-03-02T05:09:30.912Z,45.35
2023-03-02T05:11:59.809Z,50.58
2023-03-02T05:14:27.636Z,46.58
2023-03-02T05:16:55.077Z,42.60
2023-03-02T05:19:22.660Z,43.60
2023-03-02T05:21:50.157Z,48.28
2023-03-02T05:24:17.691Z,42.78
2023-03-02T05:26:45.141Z,51.30
2023-03-02T05:29:12.563Z,51.88
2023-03-02T05:31:41.738Z,55.50
2023-03-02T05:34:10.391Z,51.85
2023-03-02T05:36:38.613Z,53.55
2023-03-02T05:39:07.029Z,52.30
2023-03-02T05:41:34.979Z,52.30
2023-03-02T05:44:02.776Z,59.90
2023-03-02T05:46:30.265Z,60.42
2023-03-02T05:48:57.948Z,62.20
2023-03-02T05:51:25.455Z,62.63
2023-03-02T05:53:52.888Z,67.00
2023-03-02T05:56:22.401Z,71.80
2023-03-02T05:58:49.877Z,82.63
2023-03-02T06:01:17.344Z,82.15
2023-03-02T06:03:44.766Z,86.40
2023-03-02T06:06:14.131Z,82.75
2023-03-02T06:08:42.871Z,87.07
2023-03-02T06:11:10.376Z,81.65
2023-03-02T06:13:37.978Z,83.68
2023-03-02T06:16:05.978Z,85.95
2023-03-02T06:18:33.882Z,83.55
2023-03-02T06:21:01.571Z,93.00
2023-03-02T06:23:29.581Z,85.82
2023-03-02T06:25:58.214Z,89.05
2023-03-02T06:28:26.686Z,83.45
2023-03-02T06:30:54.135Z,88.93
2023-03-02T06:33:22.050Z,87.07
2023-03-02T06:35:50.306Z,83.22
2023-03-02T06:38:18.035Z,73.97
2023-03-02T06:40:45.565Z,71.50
2023-03-02T06:43:13.082Z,66.20
2023-03-02T06:45:40.632Z,66.38
2023-03-02T06:48:08.460Z,66.45
2023-03-02T06:50:36.167Z,71.28
2023-03-02T06:53:03.686Z,63.33
2023-03-02T06:55:31.152Z,63.83
2023-03-02T06:57:58.574Z,64.95
2023-03-02T07:00:28.027Z,66.18
2023-03-02T07:02:56.391Z,70.22
2023-03-02T07:05:24.476Z,55.53
2023-03-02T07:07:52.278Z,59.95
2023-03-02T07:10:19.848Z,63.72
2023-03-02T07:12:47.290Z,65.88
2023-03-02T07:15:15.105Z,68.15
2023-03-02T07:17:43.474Z,65.60
2023-03-02T07:20:11.497Z,70.00
2023-03-02T07:22:39.411Z,66.65
2023-03-02T07:25:07.500Z,58.35
2023-03-02T07:27:58.112Z,65.63
2023-03-02T07:30:25.789Z,63.78
2023-03-02T07:32:53.246Z,72.65
2023-03-02T07:35:22.606Z,65.00
2023-03-02T07:37:50.115Z,63.35
2023-03-02T07:40:17.625Z,71.50
2023-03-02T07:42:45.120Z,59.97
2023-03-02T07:45:16.975Z,63.15
2023-03-02T07:47:44.611Z,60.78
2023-03-02T07:50:12.479Z,63.00
2023-03-02T07:52:39.989Z,63.60
2023-03-02T07:55:07.581Z,63.00
2023-03-02T07:57:35.220Z,55.50
2023-03-02T08:00:02.980Z,55.42
2023-03-02T08:02:40.714Z,59.72
2023-03-02T08:05:08.247Z,58.13
2023-03-02T08:07:35.681Z,58.03
2023-03-02T08:10:03.157Z,55.30
2023-03-02T08:12:30.765Z,56.35
2023-03-02T08:14:58.270Z,62.85
2023-03-02T08:17:25.681Z,58.22
2023-03-02T08:19:53.136Z,65.18
2023-03-02T08:22:20.920Z,62.95
2023-03-02T08:24:48.404Z,57.28
2023-03-02T08:27:16.312Z,64.43
2023-03-02T08:29:43.751Z,62.78
2023-03-02T08:32:11.352Z,61.60
2023-03-02T08:34:38.839Z,54.35
2023-03-02T08:37:06.361Z,58.75
2023-03-02T08:39:33.980Z,60.47
2023-03-02T08:42:01.440Z,59.60
2023-03-02T08:44:28.951Z,60.05
2023-03-02T08:46:56.364Z,58.05
2023-03-02T08:49:23.827Z,54.25
2023-03-02T08:51:53.717Z,44.35
2023-03-02T08:54:23.885Z,40.75
2023-03-02T08:56:51.581Z,43.67
2023-03-02T08:59:19.039Z,44.80
2023-03-02T09:01:46.530Z,46.15
2023-03-02T09:04:14.228Z,45.90
2023-03-02T09:06:43.351Z,48.13
2023-03-02T09:09:11.474Z,47.78
2023-03-02T09:11:39.293Z,50.50
2023-03-02T09:14:06.777Z,47.85
2023-03-02T09:16:34.365Z,46.90
2023-03-02T09:19:01.869Z,47.92
2023-03-02T09:21:29.330Z,54.22
2023-03-02T09:23:58.358Z,46.30
2023-03-02T09:26:29.119Z,47.65
2023-03-02T09:28:56.739Z,49.97
2023-03-02T09:31:24.541Z,49.15
2023-03-02T09:33:52.138Z,47.88
2023-03-02T09:36:22.126Z,45.85
2023-03-02T09:38:49.612Z,50.53
2023-03-02T09:41:20.262Z,51.50
2023-03-02T09:44:14.203Z,48.40
2023-03-02T09:46:47.826Z,51.20
2023-03-02T09:49:42.893Z,51.67
2023-03-02T09:52:16.674Z,49.75
2023-03-02T09:54:44.112Z,54.10
2023-03-02T09:57:22.916Z,54.85
2023-03-02T10:00:18.129Z,58.42
2023-03-02T10:02:49.705Z,63.28
2023-03-02T10:05:19.225Z,53.72
2023-03-02T10:07:48.162Z,57.33
2023-03-02T10:10:18.652Z,58.70
2023-03-02T10:12:56.924Z,53.03
2023-03-02T10:15:47.779Z,57.72
2023-03-02T10:18:23.556Z,51.63
2023-03-02T10:21:01.403Z,54.10
2023-03-02T10:23:37.943Z,50.58
2023-03-02T10:26:05.500Z,52.55
2023-03-02T10:28:41.956Z,50.17
2023-03-02T10:31:11.070Z,56.20
2023-03-02T10:33:40.093Z,55.72
2023-03-02T10:36:16.438Z,54.55
2023-03-02T10:38:43.951Z,50.15
2023-03-02T10:41:16.194Z,54.60
2023-03-02T10:43:46.158Z,53.33
2023-03-02T10:46:14.470Z,53.45
2023-03-02T10:48:54.161Z,48.38
2023-03-02T10:51:27.725Z,46.35
2023-03-02T10:54:05.307Z,42.85
2023-03-02T10:56:33.577Z,44.50
2023-03-02T10:59:03.624Z,44.38
2023-03-02T11:01:32.269Z,44.20
2023-03-02T11:04:01.347Z,45.63
2023-03-02T11:06:33.572Z,51.10
2023-03-02T11:09:01.246Z,43.95
2023-03-02T11:11:29.415Z,50.03
2023-03-02T11:13:57.154Z,41.70
2023-03-02T11:16:33.934Z,45.55
2023-03-02T11:19:04.286Z,44.95
2023-03-02T11:21:32.018Z,43.85
2023-03-02T11:24:05.844Z,42.13
2023-03-02T11:26:47.480Z,41.65
2023-03-02T11:29:33.795Z,46.53
2023-03-02T11:32:16.523Z,41.67
2023-03-02T11:34:47.593Z,40.47
2023-03-02T11:37:30.739Z,46.00
2023-03-02T11:40:01.358Z,42.05
2023-03-02T11:42:34.349Z,38.85
2023-03-02T11:47:30.273Z,39.22
2023-03-02T11:49:59.856Z,40.63
2023-03-02T11:52:29.212Z,38.53
2023-03-02T11:55:01.952Z,35.70
2023-03-02T11:57:29.386Z,39.83
2023-03-02T11:59:58.460Z,35.72
2023-03-02T12:02:27.215Z,32.40
2023-03-02T12:05:08.629Z,31.10
2023-03-02T12:07:36.168Z,30.73
2023-03-02T12:10:09.204Z,30.63
2023-03-02T12:12:40.992Z,31.30
2023-03-02T12:15:27.912Z,30.90
2023-03-02T12:17:55.445Z,26.77
2023-03-02T12:20:26.986Z,28.83
2023-03-02T12:22:54.984Z,29.88
2023-03-02T12:25:22.371Z,24.90
2023-03-02T12:27:50.839Z,24.27
2023-03-02T12:30:23.609Z,22.30
2023-03-02T12:33:00.336Z,22.13
2023-03-02T12:35:31.177Z,15.02
2023-03-02T12:38:03.442Z,15.20
2023-03-02T12:40:49.730Z,17.40
2023-03-02T12:43:27.039Z,14.05
2023-03-02T12:46:13.767Z,14.13
2023-03-02T12:48:58.059Z,15.23
2023-03-02T12:51:27.092Z,17.50
2023-03-02T12:54:07.874Z,14.93
2023-03-02T12:56:35.573Z,15.23
2023-03-02T12:59:03.209Z,15.77
2023-03-02T13:01:32.005Z,14.07
2023-03-02T13:03:59.801Z,16.55
2023-03-02T13:06:32.477Z,14.55
2023-03-02T13:09:03.462Z,16.58
2023-03-02T13:11:35.536Z,16.02
2023-03-02T13:14:06.431Z,19.40
2023-03-02T13:16:36.941Z,15.43
2023-03-02T13:19:10.929Z,16.13
2023-03-02T13:21:39.293Z,15.25
2023-03-02T13:24:45.626Z,16.70
2023-03-02T13:27:20.611Z,16.67
2023-03-02T13:29:48.723Z,12.55
2023-03-02T13:32:24.175Z,14.77
2023-03-02T13:34:56.019Z,12.18
2023-03-02T13:37:37.696Z,13.88
2023-03-02T13:40:07.519Z,12.80
2023-03-02T13:42:36.618Z,12.98
2023-03-02T13:45:22.920Z,13.20
2023-03-02T13:47:50.384Z,12.32
2023-03-02T13:50:18.940Z,15.82
2023-03-02T13:52:46.603Z,11.93
2023-03-02T13:55:16.770Z,16.15
2023-03-02T13:57:48.765Z,14.50
2023-03-02T14:00:19.930Z,13.40
2023-03-02T14:02:48.751Z,13.52
2023-03-02T14:05:18.789Z,12.60
2023-03-02T14:07:46.546Z,18.23
2023-03-02T14:10:15.709Z,11.73
2023-03-02T14:12:46.562Z,12.88
2023-03-02T14:15:15.807Z,12.38
2023-03-02T14:17:43.825Z,12.15
2023-03-02T14:20:12.857Z,11.95
2023-03-02T14:22:40.922Z,13.20
2023-03-02T14:25:08.736Z,12.65
2023-03-02T14:27:37.393Z,13.30
2023-03-02T14:30:16.013Z,16.00
2023-03-02T14:32:43.460Z,14.88
2023-03-02T14:35:15.743Z,14.63
2023-03-02T14:37:44.932Z,15.07
2023-03-02T14:40:25.116Z,18.17
2023-03-02T14:42:53.219Z,13.52
2023-03-02T14:45:21.425Z,14.77
2023-03-02T14:47:49.137Z,12.80
2023-03-02T14:50:17.360Z,18.88
2023-03-02T14:52:46.590Z,12.98
2023-03-02T14:55:33.140Z,21.08
2023-03-02T14:58:03.859Z,13.52
2023-03-02T15:00:34.812Z,14.60
2023-03-02T15:03:02.449Z,12.45
2023-03-02T15:05:32.449Z,14.57
2023-03-02T15:07:59.980Z,14.07
2023-03-02T15:10:27.606Z,14.05
2023-03-02T15:12:55.167Z,15.98
2023-03-02T15:15:22.971Z,17.33
2023-03-02T15:17:50.524Z,13.60
2023-03-02T15:20:18.087Z,13.18
2023-03-02T15:22:45.588Z,15.55
2023-03-02T15:25:13.102Z,14.85
2023-03-02T15:27:41.544Z,17.70
2023-03-02T15:30:09.327Z,15.48
2023-03-02T15:32:37.545Z,16.40
2023-03-02T15:35:05.385Z,15.55
2023-03-02T15:37:32.817Z,15.43
2023-03-02T15:40:00.299Z,16.30
2023-03-02T15:42:27.781Z,18.38
2023-03-02T15:44:55.309Z,17.10
2023-03-02T15:47:23.293Z,17.88
2023-03-02T15:49:50.737Z,16.50
2023-03-02T15:52:20.026Z,16.67
2023-03-02T15:54:47.507Z,17.73
2023-03-02T15:57:15.147Z,17.05
2023-03-02T15:59:43.627Z,18.58
2023-03-02T16:02:15.141Z,19.40
2023-03-02T16:04:42.641Z,18.30
2023-03-02T16:07:10.126Z,17.85
2023-03-02T16:09:37.645Z,16.30
2023-03-02T16:12:05.155Z,21.50
2023-03-02T16:14:32.752Z,21.70
2023-03-02T16:17:00.227Z,18.88
2023-03-02T16:19:27.776Z,19.40
2023-03-02T16:21:55.244Z,18.08
2023-03-02T16:24:22.738Z,19.25
2023-03-02T16:26:50.968Z,19.92
2023-03-02T16:29:18.422Z,20.70
2023-03-02T16:31:46.993Z,22.80
2023-03-02T16:34:14.848Z,18.58
2023-03-02T16:36:42.471Z,19.25
2023-03-02T16:39:11.045Z,19.73
2023-03-02T16:41:39.685Z,19.55
2023-03-02T16:44:07.268Z,19.88
2023-03-02T16:46:36.760Z,21.50
2023-03-02T16:49:04.904Z,20.95
2023-03-02T16:51:32.701Z,18.08
2023-03-02T16:54:00.239Z,21.67
2023-03-02T16:56:27.791Z,22.20
2023-03-02T16:58:59.990Z,22.48
2023-03-02T17:01:28.361Z,21.52
2023-03-02T17:03:55.980Z,23.08
2023-03-02T17:06:24.035Z,19.92
2023-03-02T17:08:51.532Z,20.33
2023-03-02T17:11:19.749Z,21.88
2023-03-02T17:13:47.225Z,19.92
2023-03-02T17:16:16.746Z,25.58
2023-03-02T17:18:47.054Z,18.85
2023-03-02T17:21:16.180Z,20.98
2023-03-02T17:23:43.788Z,17.75
2023-03-02T17:26:11.286Z,24.15
2023-03-02T17:28:39.321Z,18.75
2023-03-02T17:31:06.792Z,19.77
2023-03-02T17:33:34.449Z,20.60
2023-03-02T17:36:07.330Z,18.92
2023-03-02T17:38:38.004Z,19.55
2023-03-02T17:41:06.141Z,21.30
2023-03-02T17:43:34.492Z,16.38
2023-03-02T17:46:09.207Z,16.42
2023-03-02T17:48:36.908Z,17.10
2023-03-02T17:51:04.461Z,21.17
2023-03-02T17:53:31.893Z,21.58
2023-03-02T17:55:59.477Z,16.33
2023-03-02T17:58:35.948Z,18.08
2023-03-02T18:01:10.429Z,15.52
2023-03-02T18:03:38.905Z,24.80
2023-03-02T18:06:06.840Z,19.45
2023-03-02T18:08:34.413Z,13.80
2023-03-02T18:11:01.908Z,20.63
2023-03-02T18:13:29.377Z,13.63
2023-03-02T18:15:57.162Z,12.82
2023-03-02T18:18:25.113Z,9.98
2023-03-02T18:20:54.740Z,11.80
2023-03-02T18:23:22.286Z,12.95
2023-03-02T18:25:49.920Z,14.30
2023-03-02T18:28:17.501Z,9.05
2023-03-02T18:30:45.665Z,9.88
2023-03-02T18:33:13.483Z,11.95
2023-03-02T18:35:41.122Z,10.65
2023-03-02T18:38:08.693Z,9.38
2023-03-02T18:40:36.421Z,12.80
2023-03-02T18:43:03.927Z,13.27
2023-03-02T18:45:32.048Z,10.02
2023-03-02T18:48:00.208Z,7.85
2023-03-02T18:50:29.647Z,10.02
2023-03-02T18:52:57.203Z,8.75
2023-03-02T18:55:25.466Z,7.68
2023-03-02T18:57:56.241Z,9.30
2023-03-02T19:00:27.973Z,9.68
2023-03-02T19:02:56.008Z,7.05
2023-03-02T19:05:26.900Z,10.70
2023-03-02T19:07:55.196Z,13.07
2023-03-02T19:10:22.669Z,9.38
2023-03-02T19:12:50.462Z,8.38
2023-03-02T19:15:18.064Z,13.20
2023-03-02T19:17:46.041Z,10.15
2023-03-02T19:20:15.181Z,7.57
2023-03-02T19:22:42.678Z,12.73
2023-03-02T19:25:10.320Z,12.75
2023-03-02T19:27:37.803Z,9.95
2023-03-02T19:30:06.387Z,10.93
2023-03-02T19:32:33.855Z,11.73
2023-03-02T19:35:03.867Z,10.88
2023-03-02T19:37:31.372Z,14.43
2023-03-02T19:39:58.883Z,9.38
2023-03-02T19:42:26.590Z,10.40
2023-03-02T19:44:54.104Z,10.43
2023-03-02T19:47:21.574Z,12.18
2023-03-02T19:49:49.045Z,11.95
2023-03-02T19:52:16.478Z,8.00
2023-03-02T19:54:45.489Z,20.55
2023-03-02T19:57:13.064Z,41.60
2023-03-02T19:59:41.096Z,17.55
2023-03-02T20:02:08.947Z,15.18
2023-03-02T20:04:36.508Z,9.35
2023-03-02T20:07:04.087Z,10.98
2023-03-02T20:09:31.594Z,9.38
2023-03-02T20:12:00.175Z,11.32
2023-03-02T20:14:33.725Z,8.82
2023-03-02T20:17:02.419Z,13.13
2023-03-02T20:19:29.889Z,9.13
2023-03-02T20:21:57.352Z,7.05
2023-03-02T20:24:24.887Z,9.52
2023-03-02T20:26:54.292Z,6.47
2023-03-02T20:29:21.843Z,8.30
2023-03-02T20:31:49.544Z,9.43
2023-03-02T20:34:17.330Z,8.70
2023-03-02T20:36:44.810Z,6.32
2023-03-02T20:39:15.084Z,5.47
2023-03-02T20:41:42.526Z,8.02
2023-03-02T20:44:11.517Z,12.57
2023-03-02T20:46:42.317Z,10.52
2023-03-02T20:49:12.057Z,6.50
2023-03-02T20:51:41.776Z,6.47
2023-03-02T20:54:09.349Z,5.82
2023-03-02T20:56:36.856Z,7.97
2023-03-02T20:59:04.441Z,3.03
2023-03-02T21:01:32.050Z,5.57
2023-03-02T21:04:02.158Z,3.50
2023-03-02T21:06:33.457Z,4.35
2023-03-02T21:09:03.571Z,6.68
2023-03-02T21:11:31.129Z,7.15
2023-03-02T21:13:59.506Z,6.45
2023-03-02T21:16:30.568Z,9.02
2023-03-02T21:18:58.137Z,6.07
2023-03-02T21:21:40.394Z,5.55
2023-03-02T21:24:09.474Z,4.22
2023-03-02T21:26:37.031Z,5.70
2023-03-02T21:29:05.338Z,6.53
2023-03-02T21:31:33.116Z,8.95
2023-03-02T21:34:00.734Z,5.82
2023-03-02T21:36:28.316Z,9.63
2023-03-02T21:38:56.082Z,8.13
2023-03-02T21:41:23.599Z,5.00
2023-03-02T21:43:51.417Z,7.88
2023-03-02T21:46:20.732Z,19.75
2023-03-02T21:48:49.224Z,14.90
2023-03-02T21:51:17.115Z,7.90
2023-03-02T21:53:44.689Z,8.50
2023-03-02T21:56:20.478Z,11.60
2023-03-02T21:58:52.726Z,10.80
2023-03-02T22:01:20.855Z,9.65
2023-03-02T22:03:48.464Z,7.57
2023-03-02T22:06:20.285Z,7.22
2023-03-02T22:08:48.021Z,6.78
2023-03-02T22:11:20.356Z,6.95
2023-03-02T22:13:48.330Z,14.18
2023-03-02T22:16:16.031Z,7.75
2023-03-02T22:18:44.184Z,7.82
2023-03-02T22:21:23.928Z,9.38
2023-03-02T22:23:54.579Z,13.30
2023-03-02T22:26:22.081Z,7.78
2023-03-02T22:28:49.557Z,9.57
2023-03-02T22:31:21.361Z,11.70
2023-03-02T22:33:49.681Z,8.90
2023-03-02T22:36:20.646Z,9.75
2023-03-02T22:38:48.722Z,4.78
2023-03-02T22:41:20.251Z,11.63
2023-03-02T22:43:49.494Z,6.82
2023-03-02T22:46:21.875Z,7.65
2023-03-02T22:48:52.969Z,6.68
2023-03-02T22:51:21.606Z,12.98
2023-03-02T22:53:49.286Z,5.75
2023-03-02T22:56:34.901Z,8.15
2023-03-02T22:59:22.723Z,10.20
2023-03-02T23:01:50.547Z,10.88
2023-03-02T23:04:25.558Z,7.00
2023-03-02T23:06:57.579Z,4.93
2023-03-02T23:09:26.922Z,4.63
2023-03-02T23:11:55.419Z,8.32
2023-03-02T23:14:22.890Z,6.72
2023-03-02T23:16:54.976Z,5.88
2023-03-02T23:19:22.474Z,7.47
2023-03-02T23:21:50.505Z,9.38
2023-03-02T23:24:20.717Z,4.85
2023-03-02T23:26:49.111Z,12.68
2023-03-02T23:29:16.775Z,3.70
2023-03-02T23:31:44.906Z,6.90
2023-03-02T23:34:12.712Z,4.00
2023-03-02T23:36:40.739Z,7.95
2023-03-02T23:39:09.081Z,7.10
2023-03-02T23:41:38.558Z,5.88
2023-03-02T23:44:06.827Z,6.65
2023-03-02T23:46:34.401Z,7.25
2023-03-02T23:49:01.844Z,7.15
2023-03-02T23:51:29.565Z,5.70
2023-03-02T23:53:57.140Z,8.50
2023-03-02T23:56:24.957Z,6.75
2023-03-02T23:58:52.490Z,4.35
